SCSE/LSC METAR and TAF weather

Enter ICAO airport designator
Station Type Date Time Source
SCSE METAR 2022/01/29 11:00 UTC NOAA

SCSE 291100Z 06003KT 9999 BKN013 14/13 Q1016


Station Type Date Time Source
SCSE Decoded METAR 2022/01/29 11:00 UTC NOAA

La Serena, Chile (SCSE) 29-54S 071-12W
Jan 29, 2022 - 06:00 AM EST / 2022.01.29 1100 UTC
Wind: from the ENE (060 degrees) at 3 MPH (3 KT):0
Visibility: greater than 7 mile(s):0
Sky conditions: mostly cloudy
Temperature: 57 F (14 C)
Dew Point: 55 F (13 C)
Relative Humidity: 93%
Pressure (altimeter): 30.00 in. Hg (1016 hPa)
ob: SCSE 291100Z 06003KT 9999 BKN013 14/13 Q1016
cycle: 11

Station Type Date Time Source
SCSE TAF 2022/01/29 12:03 UTC NOAA

TAF TAF SCSE 291009Z 2912/3012 29004KT 9999 BKN007 OVC012 TX20/2919Z TN13/3010Z
BECMG 2913/2915 FEW012 SCT020
BECMG 2916/2918 29011KT CAVOK
BECMG 3001/3003 29005KT
BECMG 3007/3009 BKN010

Example: see airport list